createdAt,value
2022-12-16T00:02:32.866Z,0
2022-12-16T00:08:09.005Z,0
2022-12-16T00:13:43.946Z,0
2022-12-16T00:19:19.007Z,0
2022-12-16T00:24:55.989Z,0
2022-12-16T00:30:31.110Z,0
2022-12-16T00:36:05.926Z,0
2022-12-16T00:41:40.850Z,0
2022-12-16T00:47:44.760Z,0
2022-12-16T00:53:17.329Z,0
2022-12-16T00:58:52.615Z,0
2022-12-16T01:04:29.725Z,2
2022-12-16T01:10:05.359Z,4
2022-12-16T01:15:41.992Z,4
2022-12-16T01:21:17.131Z,2
2022-12-16T01:26:53.177Z,2
2022-12-16T01:32:28.959Z,0
2022-12-16T01:38:07.019Z,0
2022-12-16T01:43:43.722Z,0
2022-12-16T01:49:40.759Z,0
2022-12-16T01:55:13.533Z,0
2022-12-16T02:00:48.817Z,8
2022-12-16T02:06:25.171Z,2
2022-12-16T02:11:59.892Z,0
2022-12-16T02:17:34.528Z,0
2022-12-16T02:23:09.979Z,0
2022-12-16T02:28:45.107Z,0
2022-12-16T02:34:20.213Z,2
2022-12-16T02:39:55.975Z,0
2022-12-16T02:45:31.812Z,0
2022-12-16T02:51:06.802Z,0
2022-12-16T02:56:42.302Z,0
2022-12-16T03:02:19.595Z,0
2022-12-16T03:07:55.327Z,0
2022-12-16T03:13:33.458Z,0
2022-12-16T03:19:10.718Z,2
2022-12-16T03:24:46.844Z,0
2022-12-16T03:30:22.566Z,0
2022-12-16T03:35:57.640Z,0
2022-12-16T03:41:42.043Z,0
2022-12-16T03:47:39.133Z,0
2022-12-16T03:53:12.321Z,0
2022-12-16T03:58:47.670Z,0
2022-12-16T04:04:23.127Z,2
2022-12-16T04:09:58.881Z,4
2022-12-16T04:15:35.436Z,10
2022-12-16T04:21:12.032Z,0
2022-12-16T04:26:46.866Z,2
2022-12-16T04:32:22.908Z,0
2022-12-16T04:37:58.830Z,7
2022-12-16T04:43:36.094Z,8
2022-12-16T04:49:33.577Z,1
2022-12-16T04:55:06.700Z,2
2022-12-16T05:00:42.367Z,0
2022-12-16T05:06:17.575Z,0
2022-12-16T05:11:52.797Z,4
2022-12-16T05:17:29.223Z,2
2022-12-16T05:23:03.910Z,0
2022-12-16T05:28:38.770Z,0
2022-12-16T05:34:13.787Z,0
2022-12-16T05:39:49.121Z,0
2022-12-16T05:45:23.946Z,0
2022-12-16T05:51:00.044Z,0
2022-12-16T05:56:34.974Z,0
2022-12-16T06:02:12.180Z,0
2022-12-16T06:07:48.053Z,0
2022-12-16T06:13:23.189Z,0
2022-12-16T06:19:19.517Z,7
2022-12-16T06:25:02.491Z,0
2022-12-16T06:30:37.662Z,0
2022-12-16T06:36:13.419Z,0
2022-12-16T06:41:48.792Z,0
2022-12-16T06:47:45.725Z,0
2022-12-16T06:53:18.435Z,0
2022-12-16T06:58:53.434Z,0
2022-12-16T07:04:28.751Z,0
2022-12-16T07:10:04.459Z,0
2022-12-16T07:15:40.285Z,0
2022-12-16T07:21:15.236Z,0
2022-12-16T07:26:50.963Z,1
2022-12-16T07:32:26.317Z,0
2022-12-16T07:38:02.454Z,10
2022-12-16T07:43:40.386Z,4
2022-12-16T07:49:15.659Z,4
2022-12-16T07:54:54.410Z,8
2022-12-16T08:00:31.321Z,10
2022-12-16T08:06:07.060Z,12
2022-12-16T08:11:42.699Z,18
2022-12-16T08:17:22.088Z,20
2022-12-16T08:22:58.067Z,14
2022-12-16T08:28:32.936Z,4
2022-12-16T08:34:09.921Z,8
2022-12-16T08:40:35.907Z,6
2022-12-16T08:46:15.917Z,6
2022-12-16T08:51:52.412Z,2
2022-12-16T08:57:28.071Z,0
2022-12-16T09:03:11.790Z,0
2022-12-16T09:08:48.932Z,0
2022-12-16T09:14:45.508Z,0
2022-12-16T09:20:21.429Z,0
2022-12-16T09:25:57.777Z,0
2022-12-16T09:31:34.193Z,2
2022-12-16T09:37:09.913Z,0
2022-12-16T09:42:45.741Z,0
2022-12-16T09:48:21.989Z,0
2022-12-16T09:53:57.735Z,0
2022-12-16T09:59:33.156Z,0
2022-12-16T10:05:09.599Z,0
2022-12-16T10:10:44.873Z,0
2022-12-16T10:16:22.612Z,0
2022-12-16T10:21:58.176Z,0
2022-12-16T10:27:33.912Z,0
2022-12-16T10:33:09.715Z,0
2022-12-16T10:38:45.585Z,0
2022-12-16T10:44:20.746Z,0
2022-12-16T10:49:57.798Z,0
2022-12-16T10:55:33.451Z,0
2022-12-16T11:01:08.909Z,0
2022-12-16T11:06:45.333Z,0
2022-12-16T11:12:20.884Z,0
2022-12-16T11:17:57.402Z,0
2022-12-16T11:23:36.309Z,0
2022-12-16T11:29:12.446Z,0
2022-12-16T11:34:47.655Z,0
2022-12-16T11:40:23.127Z,0
2022-12-16T11:45:59.646Z,0
2022-12-16T11:51:35.772Z,0
2022-12-16T11:57:11.407Z,0
2022-12-16T12:02:47.506Z,0
2022-12-16T12:08:23.723Z,0
2022-12-16T12:13:58.992Z,0
2022-12-16T12:19:44.919Z,0
2022-12-16T12:25:20.503Z,0
2022-12-16T12:30:56.762Z,0
2022-12-16T12:36:39.268Z,2
2022-12-16T12:42:14.738Z,0
2022-12-16T12:47:58.443Z,2
2022-12-16T12:53:39.520Z,4
2022-12-16T12:59:15.902Z,4
2022-12-16T13:04:56.424Z,4
2022-12-16T13:10:32.363Z,2
2022-12-16T13:16:08.484Z,6
2022-12-16T13:21:45.833Z,0
2022-12-16T13:27:20.937Z,0
2022-12-16T13:32:55.951Z,0
2022-12-16T13:38:31.872Z,8
2022-12-16T13:44:07.168Z,0
2022-12-16T13:49:48.362Z,0
2022-12-16T13:55:26.271Z,4
2022-12-16T14:01:02.987Z,10
2022-12-16T14:06:45.410Z,6
2022-12-16T14:12:35.557Z,16
2022-12-16T14:18:19.174Z,17
2022-12-16T14:25:13.664Z,10
2022-12-16T14:30:50.583Z,6
2022-12-16T14:36:27.265Z,18
2022-12-16T14:42:11.538Z,12
2022-12-16T14:47:47.120Z,2
2022-12-16T14:53:22.251Z,4
2022-12-16T14:58:57.488Z,8
2022-12-16T15:04:34.260Z,6
2022-12-16T15:10:10.513Z,0
2022-12-16T15:15:45.935Z,4
2022-12-16T15:21:22.711Z,12
2022-12-16T15:26:59.056Z,4
2022-12-16T15:33:08.403Z,0
2022-12-16T15:38:43.862Z,18
2022-12-16T15:44:21.647Z,2
2022-12-16T15:50:05.793Z,8
2022-12-16T15:55:41.356Z,0
2022-12-16T16:01:17.353Z,4
2022-12-16T16:06:52.569Z,6
2022-12-16T16:12:27.780Z,4
2022-12-16T16:18:06.085Z,4
2022-12-16T16:24:25.912Z,0
2022-12-16T16:30:07.728Z,0
2022-12-16T16:35:43.537Z,12
2022-12-16T16:41:18.875Z,12
2022-12-16T16:47:16.121Z,6
2022-12-16T16:52:49.401Z,8
2022-12-16T16:58:27.590Z,8
2022-12-16T17:04:06.406Z,2
2022-12-16T17:09:44.467Z,4
2022-12-16T17:15:19.826Z,4
2022-12-16T17:20:55.000Z,4
2022-12-16T17:26:33.722Z,6
2022-12-16T17:32:17.841Z,6
2022-12-16T17:37:53.595Z,4
2022-12-16T17:43:32.663Z,8
2022-12-16T17:49:30.686Z,2
2022-12-16T17:55:03.870Z,6
2022-12-16T18:00:39.297Z,4
2022-12-16T18:06:14.309Z,77
2022-12-16T18:12:10.470Z,42
2022-12-16T18:17:46.836Z,40
2022-12-16T18:23:23.067Z,91
2022-12-16T18:28:57.978Z,34
2022-12-16T18:34:42.108Z,42
2022-12-16T18:40:18.317Z,26
2022-12-16T18:45:55.989Z,113
2022-12-16T18:51:31.419Z,80
2022-12-16T18:57:07.030Z,60
2022-12-16T19:02:43.722Z,10
2022-12-16T19:08:19.791Z,8
2022-12-16T19:13:54.602Z,12
2022-12-16T19:19:29.797Z,4
2022-12-16T19:25:05.306Z,4
2022-12-16T19:30:41.658Z,12
2022-12-16T19:36:17.297Z,12
2022-12-16T19:41:57.349Z,6
2022-12-16T19:47:33.126Z,6
2022-12-16T19:53:10.466Z,4
2022-12-16T19:58:45.859Z,8
2022-12-16T20:04:21.270Z,6
2022-12-16T20:09:57.384Z,4
2022-12-16T20:15:32.982Z,12
2022-12-16T20:21:08.059Z,10
2022-12-16T20:26:45.117Z,2
2022-12-16T20:32:19.921Z,22
2022-12-16T20:37:57.174Z,24
2022-12-16T20:43:32.333Z,18
2022-12-16T20:49:08.183Z,21
2022-12-16T20:54:44.961Z,10
2022-12-16T21:00:28.478Z,37
2022-12-16T21:06:13.331Z,20
2022-12-16T21:11:57.494Z,26
2022-12-16T21:17:32.795Z,30
2022-12-16T21:23:10.368Z,46
2022-12-16T21:28:45.608Z,28
2022-12-16T21:34:21.765Z,22
2022-12-16T21:39:57.252Z,28
2022-12-16T21:45:32.967Z,34
2022-12-16T21:51:07.927Z,32
2022-12-16T21:56:43.305Z,18
2022-12-16T22:02:18.692Z,24
2022-12-16T22:07:57.003Z,32
2022-12-16T22:13:32.195Z,58
2022-12-16T22:19:07.495Z,10
2022-12-16T22:24:43.046Z,59
2022-12-16T22:30:18.596Z,22
2022-12-16T22:35:56.433Z,36
2022-12-16T22:41:31.781Z,42
2022-12-16T22:47:29.748Z,18
2022-12-16T22:53:03.638Z,44
2022-12-16T22:58:40.080Z,6
2022-12-16T23:04:16.181Z,20
2022-12-16T23:09:56.640Z,30
2022-12-16T23:15:32.355Z,24
2022-12-16T23:21:08.207Z,38
2022-12-16T23:26:46.028Z,40
2022-12-16T23:32:20.991Z,30
2022-12-16T23:37:56.946Z,16
2022-12-16T23:43:33.003Z,44
2022-12-16T23:49:29.889Z,37
2022-12-16T23:55:02.460Z,20
